Time;durP1;ratioP1;P1;durP2;ratioP2;P2;SDS_P1;SDS_P2;PMS_P1;PMS_P2;Temp;Humidity;BMP_temperature;BMP_pressure;BME280_temperature;BME280_humidity;BME280_pressure;Samples;Min_cycle;Max_cycle;Signal;HPM_P1;HPM_P2
2022/06/16 00:00:35;;;;;;;8.97;5.63;;;14.10;99.90;;;;;;5016278;28;20212;-66
2022/06/16 00:03:04;;;;;;;9.80;5.10;;;14.00;99.90;;;;;;5014803;28;20350;-66
2022/06/16 00:05:34;;;;;;;8.77;5.40;;;14.00;99.90;;;;;;5014771;28;20208;-66
2022/06/16 00:08:02;;;;;;;9.13;4.80;;;14.00;99.90;;;;;;5014833;28;20652;-66
2022/06/16 00:10:30;;;;;;;18.53;5.87;;;14.00;99.90;;;;;;4998023;28;20770;-66
2022/06/16 00:12:57;;;;;;;7.70;4.60;;;13.90;99.90;;;;;;5014527;28;20282;-66
2022/06/16 00:15:27;;;;;;;8.50;5.00;;;13.80;99.90;;;;;;5014806;28;20208;-65
2022/06/16 00:17:56;;;;;;;9.80;5.03;;;13.80;99.90;;;;;;5014685;28;20191;-65
2022/06/16 00:20:24;;;;;;;7.93;4.77;;;13.80;99.90;;;;;;5014866;28;20324;-66
2022/06/16 00:22:51;;;;;;;6.77;4.80;;;13.80;99.90;;;;;;5013128;28;20238;-65
2022/06/16 00:25:18;;;;;;;8.47;4.60;;;13.90;99.90;;;;;;5014076;28;20208;-65
2022/06/16 00:27:45;;;;;;;7.27;4.43;;;13.90;99.90;;;;;;5014462;28;20287;-65
2022/06/16 00:30:12;;;;;;;10.17;5.07;;;13.80;99.90;;;;;;5014467;28;20672;-65
2022/06/16 00:32:41;;;;;;;7.97;4.53;;;13.80;99.90;;;;;;5014668;28;20283;-65
2022/06/16 00:35:10;;;;;;;8.27;4.73;;;13.80;99.90;;;;;;5014118;28;20563;-65
2022/06/16 00:37:37;;;;;;;7.43;4.57;;;13.80;99.90;;;;;;5014188;28;20210;-65
2022/06/16 00:40:04;;;;;;;6.97;4.87;;;13.80;99.90;;;;;;5014394;28;20212;-66
2022/06/16 00:42:31;;;;;;;8.47;4.80;;;13.70;99.90;;;;;;5014656;28;20570;-66
2022/06/16 00:44:58;;;;;;;16.50;5.13;;;13.80;99.90;;;;;;5015180;28;20614;-65
2022/06/16 00:47:28;;;;;;;7.30;4.07;;;13.80;99.90;;;;;;5014343;28;20299;-65
2022/06/16 00:50:01;;;;;;;5.97;4.47;;;13.80;99.90;;;;;;5014199;28;20219;-66
2022/06/16 00:52:31;;;;;;;8.83;4.40;;;13.80;99.90;;;;;;5013731;28;20196;-65
2022/06/16 00:55:13;;;;;;;7.67;4.53;;;13.70;99.90;;;;;;5013619;28;20232;-65
2022/06/16 00:57:46;;;;;;;8.20;4.83;;;13.60;99.90;;;;;;5013995;28;20524;-66
2022/06/16 01:00:43;;;;;;;6.03;4.53;;;13.60;99.90;;;;;;5013728;28;20192;-65
2022/06/16 01:03:10;;;;;;;6.30;4.60;;;13.60;99.90;;;;;;5013148;28;20304;-66
2022/06/16 01:05:37;;;;;;;7.20;4.50;;;13.50;99.90;;;;;;5013745;28;20211;-66
2022/06/16 01:08:04;;;;;;;9.73;4.33;;;13.50;99.90;;;;;;5013714;28;20283;-66
2022/06/16 01:10:43;;;;;;;9.90;4.47;;;13.40;99.90;;;;;;5013915;28;20200;-66
2022/06/16 01:13:42;;;;;;;6.23;4.50;;;13.40;99.90;;;;;;5013633;28;20200;-66
2022/06/16 01:16:36;;;;;;;5.40;4.33;;;13.40;99.90;;;;;;5013427;28;20295;-67
2022/06/16 01:19:25;;;;;;;8.37;4.63;;;13.30;99.90;;;;;;5013412;28;20207;-65
2022/06/16 01:22:03;;;;;;;7.57;4.30;;;13.30;99.90;;;;;;5013305;28;20208;-65
2022/06/16 01:24:42;;;;;;;11.43;4.53;;;13.20;99.90;;;;;;5013357;28;20221;-65
2022/06/16 01:27:53;;;;;;;8.43;4.57;;;13.20;99.90;;;;;;5013235;28;20279;-65
2022/06/16 01:30:45;;;;;;;6.37;4.70;;;13.20;99.90;;;;;;5014275;28;20245;-65
2022/06/16 01:33:31;;;;;;;6.90;4.60;;;13.10;99.90;;;;;;5013556;28;20658;-65
2022/06/16 01:36:08;;;;;;;7.63;5.13;;;13.10;99.90;;;;;;5013072;28;20678;-65
2022/06/16 01:38:58;;;;;;;7.43;5.20;;;13.00;99.90;;;;;;5013397;28;20305;-66
2022/06/16 01:41:41;;;;;;;10.07;5.10;;;13.00;99.90;;;;;;5013049;28;20204;-65
2022/06/16 01:44:15;;;;;;;8.60;5.40;;;13.00;99.90;;;;;;5013047;28;20226;-66
2022/06/16 01:46:44;;;;;;;7.53;5.60;;;13.00;99.90;;;;;;5012958;28;20195;-66
2022/06/16 01:49:35;;;;;;;8.13;5.20;;;13.00;99.90;;;;;;5012987;28;20204;-65
2022/06/16 01:52:10;;;;;;;10.20;5.17;;;13.00;99.90;;;;;;5013122;28;20214;-66
2022/06/16 01:54:45;;;;;;;9.27;5.00;;;13.00;99.90;;;;;;4996195;28;20227;-66
2022/06/16 01:57:22;;;;;;;7.70;5.50;;;12.90;99.90;;;;;;5014011;28;20191;-65
2022/06/16 02:00:17;;;;;;;8.47;5.30;;;12.90;99.90;;;;;;5012815;28;20660;-66
2022/06/16 02:02:46;;;;;;;7.37;5.53;;;12.90;99.90;;;;;;5011482;28;20664;-65
2022/06/16 02:05:23;;;;;;;9.53;5.60;;;12.90;99.90;;;;;;5014059;28;20235;-66
2022/06/16 02:08:00;;;;;;;9.60;5.70;;;12.80;99.90;;;;;;5012518;28;20608;-65
2022/06/16 02:10:41;;;;;;;10.23;6.13;;;12.80;99.90;;;;;;5012643;28;20220;-66
2022/06/16 02:13:11;;;;;;;9.23;6.27;;;12.70;99.90;;;;;;5013137;28;20571;-65
2022/06/16 02:15:44;;;;;;;7.50;5.90;;;12.70;99.90;;;;;;5011620;28;20286;-65
2022/06/16 02:18:15;;;;;;;11.43;6.20;;;12.70;99.90;;;;;;5012981;28;20203;-65
2022/06/16 02:21:13;;;;;;;7.93;6.00;;;12.70;99.90;;;;;;5012340;28;20207;-66
2022/06/16 02:23:41;;;;;;;8.47;5.77;;;12.60;99.90;;;;;;4992023;28;20608;-64
2022/06/16 02:26:08;;;;;;;9.70;6.13;;;12.60;99.90;;;;;;4975126;28;20566;-65
2022/06/16 02:28:50;;;;;;;10.60;6.37;;;12.60;99.90;;;;;;4975562;28;20205;-64
2022/06/16 02:31:40;;;;;;;10.07;6.50;;;12.60;99.90;;;;;;4991602;28;20296;-64
2022/06/16 02:34:25;;;;;;;10.73;5.80;;;12.50;99.90;;;;;;4991559;28;20224;-65
2022/06/16 02:36:59;;;;;;;10.60;6.53;;;12.50;99.90;;;;;;4975538;28;20210;-65
2022/06/16 02:39:57;;;;;;;9.03;5.97;;;12.40;99.90;;;;;;4991819;28;20200;-65
2022/06/16 02:42:46;;;;;;;9.60;6.77;;;12.40;99.90;;;;;;4991656;28;20200;-64
2022/06/16 02:45:18;;;;;;;10.50;6.73;;;12.40;99.90;;;;;;4933359;29;20230;-64
2022/06/16 02:48:17;;;;;;;8.57;6.37;;;12.50;99.90;;;;;;4933918;29;20231;-65
2022/06/16 02:51:07;;;;;;;9.77;6.70;;;12.50;99.90;;;;;;4933690;29;20229;-64
2022/06/16 02:56:26;;;;;;;11.10;6.90;;;12.40;99.90;;;;;;4933163;29;20317;-64
2022/06/16 02:58:56;;;;;;;9.17;6.37;;;12.50;99.90;;;;;;4933565;29;20294;-64
2022/06/16 03:01:24;;;;;;;9.80;5.60;;;12.50;99.90;;;;;;4949061;29;20763;-64
2022/06/16 03:04:01;;;;;;;10.20;6.57;;;12.50;99.90;;;;;;4952585;29;20222;-65
2022/06/16 03:06:28;;;;;;;9.23;5.90;;;12.60;99.90;;;;;;4936651;29;20205;-64
2022/06/16 03:08:57;;;;;;;7.70;5.97;;;12.70;99.90;;;;;;4952859;29;20281;-64
2022/06/16 03:11:29;;;;;;;10.53;6.00;;;12.80;99.90;;;;;;4936787;29;20201;-64
2022/06/16 03:13:56;;;;;;;10.03;5.90;;;12.90;99.90;;;;;;4936555;29;20569;-64
2022/06/16 03:16:24;;;;;;;7.10;5.93;;;13.00;99.90;;;;;;4936472;29;20759;-64
2022/06/16 03:18:51;;;;;;;7.63;5.50;;;13.10;99.90;;;;;;4936855;29;20237;-65
2022/06/16 03:21:18;;;;;;;8.27;5.47;;;13.20;99.90;;;;;;4942630;28;20202;-64
2022/06/16 03:23:45;;;;;;;9.77;5.10;;;13.30;99.90;;;;;;5013182;28;20243;-64
2022/06/16 03:26:13;;;;;;;7.63;5.40;;;13.40;99.90;;;;;;5013090;28;20684;-65
2022/06/16 03:28:40;;;;;;;7.43;5.10;;;13.40;99.90;;;;;;5015425;28;20231;-65
2022/06/16 03:31:07;;;;;;;7.87;5.40;;;13.50;99.90;;;;;;5015741;28;20283;-65
2022/06/16 03:33:34;;;;;;;7.83;5.03;;;13.60;99.90;;;;;;5015630;28;20198;-65
2022/06/16 03:36:01;;;;;;;8.17;4.90;;;13.70;99.90;;;;;;5015542;28;20207;-65
2022/06/16 03:38:43;;;;;;;8.50;5.37;;;13.80;99.90;;;;;;5015903;28;20526;-65
2022/06/16 03:41:11;;;;;;;7.73;5.30;;;13.90;99.90;;;;;;4999557;28;20222;-65
2022/06/16 03:43:39;;;;;;;8.40;5.20;;;14.00;99.90;;;;;;5015242;28;20329;-65
2022/06/16 03:46:07;;;;;;;9.13;5.20;;;14.00;99.90;;;;;;5015149;28;20228;-65
2022/06/16 03:48:39;;;;;;;7.13;5.17;;;14.10;99.90;;;;;;5015256;28;20602;-64
2022/06/16 03:51:07;;;;;;;20.93;5.33;;;14.10;99.90;;;;;;5016625;28;20616;-65
2022/06/16 03:53:34;;;;;;;11.00;5.13;;;14.10;99.90;;;;;;5014984;28;20419;-65
2022/06/16 03:56:02;;;;;;;11.63;5.10;;;14.20;99.90;;;;;;4998352;28;20727;-66
2022/06/16 03:58:29;;;;;;;6.93;4.87;;;14.20;99.90;;;;;;4998866;28;20202;-64
2022/06/16 04:00:56;;;;;;;8.50;4.90;;;14.30;99.90;;;;;;5016214;28;20711;-64
2022/06/16 04:06:10;;;;;;;9.70;5.30;;;14.30;99.90;;;;;;4998386;28;20288;-65
2022/06/16 04:08:39;;;;;;;8.93;4.70;;;14.30;99.90;;;;;;5016088;28;20196;-65
2022/06/16 04:13:54;;;;;;;7.83;4.83;;;14.40;99.90;;;;;;4998278;28;20219;-64
2022/06/16 04:16:21;;;;;;;7.83;5.37;;;14.40;99.90;;;;;;4998143;28;20227;-65
2022/06/16 04:18:48;;;;;;;7.63;5.60;;;14.40;99.90;;;;;;4998511;28;20255;-65
2022/06/16 04:21:15;;;;;;;9.07;6.53;;;14.50;99.90;;;;;;4998202;28;20295;-64
2022/06/16 04:23:42;;;;;;;9.37;6.27;;;14.50;99.90;;;;;;4998174;28;20192;-64
2022/06/16 04:26:09;;;;;;;9.10;6.10;;;14.50;99.90;;;;;;4997780;28;20254;-64
2022/06/16 04:28:36;;;;;;;7.57;6.00;;;14.50;99.90;;;;;;4998017;28;20288;-65
2022/06/16 04:31:03;;;;;;;9.80;6.33;;;14.50;99.90;;;;;;4997901;28;20204;-64
2022/06/16 04:33:30;;;;;;;9.83;6.03;;;14.50;99.90;;;;;;5015895;28;20595;-64
2022/06/16 04:35:57;;;;;;;8.67;6.63;;;14.60;99.90;;;;;;4997810;28;20204;-65
2022/06/16 04:38:26;;;;;;;10.23;6.87;;;14.60;99.90;;;;;;4997177;28;20200;-64
2022/06/16 04:40:53;;;;;;;11.87;6.87;;;14.70;99.90;;;;;;4998051;28;20291;-64
2022/06/16 04:43:20;;;;;;;8.83;6.63;;;14.70;99.90;;;;;;4997638;28;20200;-64
2022/06/16 04:45:47;;;;;;;11.53;6.60;;;14.80;99.90;;;;;;4997556;28;20220;-65
2022/06/16 04:48:14;;;;;;;8.87;6.50;;;14.80;99.90;;;;;;5015602;28;20594;-65
2022/06/16 04:50:41;;;;;;;10.53;6.47;;;14.90;99.90;;;;;;5015399;28;20223;-65
2022/06/16 04:53:08;;;;;;;9.40;6.47;;;15.00;99.90;;;;;;4997632;28;20208;-65
2022/06/16 04:55:35;;;;;;;9.13;6.07;;;15.00;99.90;;;;;;5014837;28;20685;-64
2022/06/16 04:58:04;;;;;;;8.30;6.17;;;15.10;99.90;;;;;;4997743;28;20200;-64
2022/06/16 05:00:31;;;;;;;8.80;5.77;;;15.20;99.90;;;;;;4997310;28;20228;-65
2022/06/16 05:03:04;;;;;;;8.80;5.40;;;15.30;99.90;;;;;;4997861;28;20199;-65
2022/06/16 05:05:31;;;;;;;7.37;5.03;;;15.40;99.90;;;;;;4997327;28;20317;-64
2022/06/16 05:07:58;;;;;;;5.83;4.60;;;15.50;99.90;;;;;;5014847;28;20205;-65
2022/06/16 05:10:25;;;;;;;8.30;5.00;;;15.60;99.90;;;;;;4997760;28;20206;-63
2022/06/16 05:12:52;;;;;;;6.90;4.47;;;15.70;99.90;;;;;;4997304;28;20250;-64
2022/06/16 05:15:19;;;;;;;6.90;4.60;;;15.90;99.90;;;;;;4996870;28;20214;-64
2022/06/16 05:17:46;;;;;;;6.87;4.57;;;16.10;99.90;;;;;;4997280;28;20204;-64
2022/06/16 05:20:13;;;;;;;15.97;4.50;;;16.20;99.90;;;;;;4997229;28;20208;-64
2022/06/16 05:22:40;;;;;;;7.27;4.53;;;16.30;99.90;;;;;;5013574;28;20700;-65
2022/06/16 05:25:07;;;;;;;8.70;4.57;;;16.50;99.90;;;;;;4997040;28;20600;-65
2022/06/16 05:27:34;;;;;;;8.80;3.97;;;16.60;99.90;;;;;;4997344;28;20206;-65
2022/06/16 05:30:02;;;;;;;6.40;4.20;;;16.70;99.90;;;;;;4980342;28;20668;-66
2022/06/16 05:32:29;;;;;;;7.17;4.23;;;16.80;99.90;;;;;;5014619;28;20303;-65
2022/06/16 05:34:56;;;;;;;7.27;4.20;;;17.00;99.90;;;;;;4996998;28;20330;-66
2022/06/16 05:37:23;;;;;;;5.90;4.20;;;17.10;99.90;;;;;;4997358;28;20290;-65
2022/06/16 05:39:50;;;;;;;7.57;4.27;;;17.20;99.90;;;;;;4997095;28;20279;-65
2022/06/16 05:42:17;;;;;;;5.77;4.10;;;17.30;99.90;;;;;;4996840;28;20204;-66
2022/06/16 05:44:45;;;;;;;5.87;4.00;;;17.40;99.90;;;;;;4996483;28;20244;-65
2022/06/16 05:47:12;;;;;;;6.57;4.00;;;17.60;99.90;;;;;;4996861;28;20216;-65
2022/06/16 05:49:40;;;;;;;6.20;3.77;;;17.60;99.90;;;;;;4995617;28;20212;-66
2022/06/16 05:52:13;;;;;;;4.83;3.90;;;17.60;99.90;;;;;;5014171;28;20188;-65
2022/06/16 05:54:41;;;;;;;8.13;3.90;;;17.60;99.90;;;;;;5004557;28;20278;-65
2022/06/16 05:57:08;;;;;;;6.20;3.97;;;17.70;99.90;;;;;;5012696;28;20291;-65
2022/06/16 05:59:36;;;;;;;6.13;3.87;;;17.80;99.90;;;;;;5014414;28;20633;-65
2022/06/16 06:02:06;;;;;;;6.03;4.10;;;17.80;99.90;;;;;;5013201;28;20211;-65
2022/06/16 06:04:34;;;;;;;5.07;3.53;;;18.00;99.90;;;;;;5012376;28;20262;-65
2022/06/16 06:07:01;;;;;;;5.10;4.10;;;18.20;99.90;;;;;;5012628;28;20250;-65
2022/06/16 06:17:50;;;;;;;8.20;3.73;;;18.60;99.90;;;;;;5012787;28;20196;-65
2022/06/16 06:20:17;;;;;;;5.27;3.10;;;18.80;99.90;;;;;;5012180;28;20235;-65
2022/06/16 06:22:44;;;;;;;3.83;2.97;;;18.90;99.90;;;;;;5012381;28;20560;-65
2022/06/16 06:25:11;;;;;;;5.33;3.17;;;19.00;99.90;;;;;;5012050;28;20224;-64
2022/06/16 06:27:43;;;;;;;4.23;3.00;;;19.10;99.90;;;;;;5012336;28;20204;-65
2022/06/16 06:30:26;;;;;;;4.33;2.97;;;19.20;99.90;;;;;;5012289;28;20662;-65
2022/06/16 06:32:53;;;;;;;4.03;2.80;;;19.20;99.90;;;;;;5012187;28;20204;-66
2022/06/16 06:35:20;;;;;;;5.30;2.57;;;19.40;99.90;;;;;;5012097;28;20311;-66
2022/06/16 06:37:49;;;;;;;5.20;2.50;;;19.40;99.90;;;;;;5013393;28;20593;-65
2022/06/16 06:40:23;;;;;;;5.97;2.50;;;19.50;99.90;;;;;;5012572;28;20218;-65
2022/06/16 06:42:49;;;;;;;3.53;2.40;;;19.60;99.90;;;;;;5012476;28;20291;-65
2022/06/16 06:45:17;;;;;;;3.53;2.40;;;19.60;99.90;;;;;;5011932;28;20322;-65
2022/06/16 06:47:44;;;;;;;3.37;2.10;;;19.60;99.90;;;;;;5012188;28;20200;-65
2022/06/16 06:50:38;;;;;;;4.17;2.20;;;19.60;99.90;;;;;;5013313;28;20218;-65
2022/06/16 06:53:07;;;;;;;3.67;2.60;;;19.70;99.90;;;;;;5012805;28;20216;-68
2022/06/16 06:55:36;;;;;;;3.63;2.10;;;19.70;99.90;;;;;;5011421;28;20243;-64
2022/06/16 06:58:06;;;;;;;3.50;2.10;;;19.60;99.90;;;;;;5011834;28;20192;-65
2022/06/16 07:00:33;;;;;;;4.97;2.10;;;19.70;99.90;;;;;;5011501;28;20204;-66
2022/06/16 07:03:00;;;;;;;3.73;2.30;;;19.90;99.90;;;;;;5011878;28;20202;-65
2022/06/16 07:05:27;;;;;;;3.27;2.20;;;19.90;99.90;;;;;;5012015;28;20216;-66
2022/06/16 07:07:58;;;;;;;3.80;2.20;;;20.10;99.90;;;;;;5011808;28;20196;-65
2022/06/16 07:10:25;;;;;;;3.70;2.00;;;20.20;99.90;;;;;;5011765;28;20211;-65
2022/06/16 07:12:52;;;;;;;3.77;2.07;;;20.20;99.90;;;;;;5011689;28;20199;-64
2022/06/16 07:15:20;;;;;;;3.90;1.80;;;20.20;99.90;;;;;;5012848;28;20196;-66
2022/06/16 07:17:47;;;;;;;2.83;1.73;;;20.50;99.90;;;;;;5012121;28;20206;-65
2022/06/16 07:20:16;;;;;;;3.63;1.90;;;20.40;99.90;;;;;;5011944;28;20294;-65
2022/06/16 07:22:45;;;;;;;2.13;1.70;;;20.40;99.90;;;;;;4995366;28;20200;-66
2022/06/16 07:25:14;;;;;;;2.87;1.97;;;20.30;99.90;;;;;;5011503;28;20247;-65
2022/06/16 07:27:41;;;;;;;4.23;2.00;;;20.40;99.90;;;;;;5011526;28;20291;-65
2022/06/16 07:30:16;;;;;;;2.93;1.90;;;20.50;99.90;;;;;;5011691;28;20314;-66
2022/06/16 07:32:44;;;;;;;3.43;2.00;;;20.70;99.90;;;;;;5011852;28;20649;-66
2022/06/16 07:35:15;;;;;;;3.10;2.00;;;20.80;99.90;;;;;;5011164;28;20607;-65
2022/06/16 07:37:42;;;;;;;3.87;1.97;;;20.70;99.90;;;;;;5011814;28;20208;-66
2022/06/16 07:40:10;;;;;;;3.10;1.80;;;20.70;99.90;;;;;;5011494;28;20299;-66
2022/06/16 07:42:38;;;;;;;3.67;1.80;;;20.60;99.90;;;;;;5012156;28;20233;-65
2022/06/16 07:45:06;;;;;;;2.73;1.90;;;20.60;99.90;;;;;;5011188;28;20582;-66
2022/06/16 07:47:32;;;;;;;4.40;1.83;;;20.70;99.90;;;;;;5011917;28;20240;-66
2022/06/16 07:50:01;;;;;;;5.93;2.00;;;20.80;99.90;;;;;;5012703;28;20188;-66
2022/06/16 07:52:31;;;;;;;2.50;1.77;;;20.90;99.90;;;;;;5012658;28;20253;-67
2022/06/16 07:54:58;;;;;;;3.40;2.07;;;20.90;99.90;;;;;;5010845;28;20238;-67
2022/06/16 07:57:27;;;;;;;2.73;1.80;;;21.00;99.90;;;;;;5011178;28;20302;-66
2022/06/16 07:59:57;;;;;;;2.53;1.70;;;20.90;99.90;;;;;;5011265;28;20292;-66
2022/06/16 08:02:26;;;;;;;2.70;1.70;;;21.20;99.90;;;;;;5010992;28;20295;-66
2022/06/16 08:04:54;;;;;;;2.90;1.63;;;21.20;99.90;;;;;;5011027;28;20196;-66
2022/06/16 08:07:24;;;;;;;5.23;1.77;;;21.30;99.90;;;;;;5011333;28;20298;-67
2022/06/16 08:09:51;;;;;;;3.43;1.67;;;21.20;99.90;;;;;;5011294;28;20193;-66
2022/06/16 08:12:19;;;;;;;2.53;1.70;;;21.30;99.90;;;;;;5011678;28;20200;-66
2022/06/16 08:14:48;;;;;;;3.03;1.77;;;21.30;99.90;;;;;;5015885;28;20283;-67
2022/06/16 08:17:24;;;;;;;4.83;1.70;;;21.30;99.90;;;;;;5014909;28;20200;-66
2022/06/16 08:19:53;;;;;;;2.77;1.50;;;21.40;99.90;;;;;;5012224;28;20625;-66
2022/06/16 08:22:20;;;;;;;3.93;1.63;;;21.60;99.90;;;;;;4998639;28;20315;-65
2022/06/16 08:24:47;;;;;;;2.57;1.50;;;22.00;99.90;;;;;;4998454;28;20203;-66
2022/06/16 08:27:16;;;;;;;3.60;1.70;;;22.70;99.90;;;;;;4998040;28;20216;-67
2022/06/16 08:29:45;;;;;;;2.35;1.65;;;23.20;99.90;;;;;;4997958;28;20630;-67
2022/06/16 08:32:14;;;;;;;2.63;1.65;;;23.30;99.90;;;;;;4997775;28;20244;-66
2022/06/16 08:34:42;;;;;;;5.93;1.75;;;23.70;99.90;;;;;;4997665;28;20201;-67
2022/06/16 08:37:09;;;;;;;2.25;1.70;;;24.30;99.90;;;;;;4997912;28;20296;-66
2022/06/16 08:39:37;;;;;;;2.63;1.80;;;24.30;99.90;;;;;;5015381;28;20197;-67
2022/06/16 08:42:14;;;;;;;3.20;1.75;;;24.60;97.60;;;;;;4997853;28;20208;-65
2022/06/16 08:44:51;;;;;;;1.77;1.50;;;24.50;96.70;;;;;;4997403;28;20525;-67
2022/06/16 08:47:28;;;;;;;2.42;1.60;;;24.90;97.50;;;;;;4997538;28;20682;-67
2022/06/16 08:49:58;;;;;;;3.15;1.60;;;24.80;95.90;;;;;;5015243;28;20188;-66
2022/06/16 08:52:47;;;;;;;3.60;1.70;;;24.60;94.90;;;;;;5014660;28;20188;-65
2022/06/16 08:55:33;;;;;;;2.53;1.60;;;25.00;93.70;;;;;;4997143;28;20728;-65
2022/06/16 08:58:05;;;;;;;2.30;1.60;;;24.80;92.20;;;;;;4997522;28;20335;-67
2022/06/16 09:00:38;;;;;;;1.58;1.35;;;25.50;93.10;;;;;;4997293;28;20208;-66
2022/06/16 09:03:21;;;;;;;2.20;1.50;;;26.00;90.20;;;;;;4997649;28;20188;-66
2022/06/16 09:06:07;;;;;;;3.78;1.90;;;25.90;87.50;;;;;;4997303;28;20682;-65
2022/06/16 09:08:56;;;;;;;1.73;1.35;;;25.70;85.10;;;;;;4997204;28;20650;-67
2022/06/16 09:11:38;;;;;;;2.45;1.40;;;25.40;85.80;;;;;;4997093;28;20609;-66
2022/06/16 09:15:10;;;;;;;2.08;1.08;;;25.90;84.20;;;;;;4997239;28;20295;-67
2022/06/16 09:17:53;;;;;;;4.55;1.98;;;26.10;80.80;;;;;;4997184;28;20733;-66
2022/06/16 09:20:51;;;;;;;1.83;1.30;;;26.90;81.90;;;;;;4919226;29;20274;-66
2022/06/16 09:23:36;;;;;;;2.45;1.40;;;27.30;78.40;;;;;;4934576;29;20213;-66
2022/06/16 09:26:08;;;;;;;2.80;1.45;;;27.40;74.60;;;;;;4934482;29;20310;-67
2022/06/16 09:28:53;;;;;;;2.30;1.30;;;27.70;73.40;;;;;;4934821;29;20623;-66
2022/06/16 09:31:43;;;;;;;3.15;1.42;;;27.80;74.10;;;;;;4918987;29;20331;-66
2022/06/16 09:34:21;;;;;;;2.65;1.35;;;28.20;70.10;;;;;;4841343;29;20214;-66
2022/06/16 09:37:13;;;;;;;2.42;1.30;;;28.00;67.40;;;;;;4810931;29;20236;-65
2022/06/16 09:39:47;;;;;;;4.57;1.40;;;27.40;67.60;;;;;;4841562;29;20275;-66
2022/06/16 09:42:32;;;;;;;1.85;1.40;;;26.90;68.40;;;;;;4841359;29;20297;-66
2022/06/16 09:45:26;;;;;;;2.45;1.35;;;26.80;68.60;;;;;;4825851;29;20206;-65
2022/06/16 09:48:16;;;;;;;2.58;1.30;;;27.50;66.80;;;;;;4841572;29;20211;-67
2022/06/16 09:51:21;;;;;;;1.83;1.20;;;27.00;64.70;;;;;;4833680;29;20652;-66
2022/06/16 09:53:55;;;;;;;1.58;1.35;;;27.00;65.10;;;;;;4804964;29;20727;-66
2022/06/16 09:56:52;;;;;;;1.77;1.20;;;27.60;67.10;;;;;;4861745;29;20215;-66
2022/06/16 09:59:25;;;;;;;2.33;1.30;;;27.90;64.90;;;;;;4789319;29;20298;-66
2022/06/16 10:01:59;;;;;;;1.45;1.10;;;27.90;64.50;;;;;;4789278;29;20204;-67
2022/06/16 10:04:27;;;;;;;2.28;1.30;;;27.90;64.00;;;;;;4789235;29;20249;-66
2022/06/16 10:06:59;;;;;;;1.52;1.30;;;28.20;64.80;;;;;;4804330;29;20702;-66
2022/06/16 10:09:47;;;;;;;3.85;1.40;;;28.20;62.90;;;;;;4804295;29;20207;-66
2022/06/16 10:12:40;;;;;;;4.07;1.30;;;28.60;61.00;;;;;;4886930;29;20243;-66
2022/06/16 10:15:13;;;;;;;2.85;1.20;;;28.70;60.20;;;;;;4880219;29;20703;-66
2022/06/16 10:17:42;;;;;;;3.92;1.40;;;28.00;59.20;;;;;;4896103;29;20207;-66
2022/06/16 10:20:11;;;;;;;4.03;1.45;;;28.00;60.90;;;;;;4880418;29;20207;-66
2022/06/16 10:22:44;;;;;;;2.97;1.20;;;28.20;60.40;;;;;;4895868;29;21256;-66
2022/06/16 10:25:13;;;;;;;2.35;1.45;;;28.20;59.60;;;;;;4879995;29;20212;-66
2022/06/16 10:27:45;;;;;;;3.42;1.40;;;27.70;62.20;;;;;;4880499;29;20760;-66
2022/06/16 10:30:36;;;;;;;3.47;1.52;;;27.20;62.40;;;;;;4864633;29;20215;-66
2022/06/16 10:33:06;;;;;;;2.97;1.50;;;26.80;62.80;;;;;;4880243;29;20244;-66
2022/06/16 10:35:33;;;;;;;2.03;1.70;;;26.90;62.70;;;;;;4926550;28;20204;-66
2022/06/16 10:38:00;;;;;;;3.80;1.60;;;27.00;65.10;;;;;;4995557;28;20757;-66
2022/06/16 10:40:36;;;;;;;3.13;1.52;;;27.50;63.30;;;;;;5013377;28;20290;-66
2022/06/16 10:43:24;;;;;;;1.65;1.35;;;27.90;64.50;;;;;;4995540;28;20563;-66
2022/06/16 10:46:07;;;;;;;3.20;1.48;;;27.90;60.50;;;;;;4995220;28;20220;-66
2022/06/16 10:48:37;;;;;;;3.33;1.70;;;28.20;59.00;;;;;;4995861;28;20207;-67
2022/06/16 10:51:09;;;;;;;1.30;1.20;;;28.20;59.40;;;;;;5012914;28;20220;-66
2022/06/16 10:53:42;;;;;;;2.97;1.40;;;28.60;60.00;;;;;;5012950;28;20476;-66
2022/06/16 10:56:19;;;;;;;2.53;1.40;;;28.90;59.00;;;;;;4995442;28;20254;-66
2022/06/16 10:59:00;;;;;;;3.75;1.52;;;28.80;59.00;;;;;;4995300;28;20226;-66
2022/06/16 11:01:53;;;;;;;2.85;1.40;;;29.00;58.60;;;;;;4995515;28;20196;-67
2022/06/16 11:04:23;;;;;;;2.17;1.40;;;29.30;56.80;;;;;;4995176;28;20192;-67
2022/06/16 11:06:54;;;;;;;1.92;1.30;;;29.00;57.30;;;;;;4995144;28;20232;-67
2022/06/16 11:09:30;;;;;;;1.63;1.40;;;28.80;56.80;;;;;;4995354;28;20291;-66
2022/06/16 11:12:02;;;;;;;2.20;1.40;;;28.90;57.00;;;;;;4995109;28;20299;-67
2022/06/16 11:14:54;;;;;;;3.85;1.40;;;28.90;55.70;;;;;;4994823;28;20192;-67
2022/06/16 11:17:54;;;;;;;2.88;1.40;;;28.80;56.40;;;;;;4995640;28;20287;-67
2022/06/16 11:20:48;;;;;;;2.33;1.40;;;29.50;55.30;;;;;;4917548;28;20205;-67
2022/06/16 11:23:18;;;;;;;1.73;1.40;;;30.20;55.60;;;;;;4932888;29;20293;-67
2022/06/16 11:25:46;;;;;;;2.50;1.20;;;30.90;55.50;;;;;;4933052;29;20733;-67
2022/06/16 11:28:19;;;;;;;2.38;1.40;;;31.40;51.70;;;;;;4917435;29;20245;-67
2022/06/16 11:30:47;;;;;;;1.90;1.40;;;31.60;51.50;;;;;;4933136;29;20234;-67
2022/06/16 11:36:57;;;;;;;2.22;1.50;;;31.30;48.60;;;;;;4933241;29;20716;-66
2022/06/16 11:39:48;;;;;;;4.25;1.33;;;31.10;48.90;;;;;;4933221;29;20720;-66
2022/06/16 11:42:14;;;;;;;1.90;1.30;;;31.80;50.20;;;;;;4933724;29;20683;-67
2022/06/16 11:45:05;;;;;;;3.45;1.83;;;32.10;49.00;;;;;;4917377;29;20706;-67
2022/06/16 11:47:44;;;;;;;3.83;1.55;;;32.20;49.20;;;;;;4918996;29;20231;-66
2022/06/16 11:50:25;;;;;;;3.50;1.77;;;32.30;49.40;;;;;;4920813;29;20272;-66
2022/06/16 11:52:59;;;;;;;1.77;1.42;;;31.60;50.00;;;;;;4936595;29;20202;-67
2022/06/16 11:55:54;;;;;;;4.03;1.40;;;31.40;50.50;;;;;;4953720;28;20340;-67
2022/06/16 11:58:57;;;;;;;2.28;1.50;;;31.00;50.70;;;;;;5015066;28;20266;-68
2022/06/16 12:01:40;;;;;;;4.75;1.70;;;31.10;52.10;;;;;;5015369;28;20725;-67
2022/06/16 12:04:25;;;;;;;2.78;1.73;;;31.00;51.90;;;;;;5015009;28;20200;-67
2022/06/16 12:07:23;;;;;;;2.65;1.55;;;31.10;52.50;;;;;;5014488;28;20696;-67
2022/06/16 12:10:02;;;;;;;1.92;1.50;;;31.40;53.40;;;;;;5014980;28;20717;-67
2022/06/16 12:12:38;;;;;;;2.25;1.45;;;31.60;52.30;;;;;;5014604;28;20721;-67
2022/06/16 12:15:29;;;;;;;2.60;1.58;;;31.30;51.50;;;;;;5014533;28;20294;-67
2022/06/16 12:18:37;;;;;;;2.92;1.48;;;31.30;52.20;;;;;;5014668;28;20196;-68
2022/06/16 12:21:37;;;;;;;2.70;1.60;;;31.10;50.50;;;;;;4994248;28;20200;-67
2022/06/16 12:24:18;;;;;;;2.38;1.50;;;31.10;53.20;;;;;;4993786;28;20197;-68
2022/06/16 12:26:58;;;;;;;2.53;1.50;;;31.30;52.70;;;;;;4993981;28;20228;-67
2022/06/16 12:29:45;;;;;;;3.45;1.70;;;31.20;53.30;;;;;;4993981;28;20239;-67
2022/06/16 12:32:29;;;;;;;2.78;1.42;;;31.40;52.80;;;;;;4993971;28;20203;-67
2022/06/16 12:34:58;;;;;;;2.00;1.50;;;31.50;53.00;;;;;;4993853;28;20262;-67
2022/06/16 12:37:29;;;;;;;4.40;1.60;;;31.70;52.10;;;;;;4993635;28;20221;-67
2022/06/16 12:40:09;;;;;;;4.90;1.42;;;31.70;52.00;;;;;;4977564;28;20655;-67
2022/06/16 12:42:47;;;;;;;3.60;1.73;;;31.70;51.30;;;;;;4977185;28;20296;-67
2022/06/16 12:45:22;;;;;;;1.63;1.35;;;31.80;52.20;;;;;;4977346;28;20196;-67
2022/06/16 12:48:04;;;;;;;2.90;1.60;;;32.00;52.40;;;;;;4993983;28;20669;-67
2022/06/16 12:50:46;;;;;;;3.05;1.60;;;32.00;52.00;;;;;;4993711;28;20292;-66
2022/06/16 12:53:39;;;;;;;2.47;1.60;;;31.70;50.60;;;;;;4977248;28;20200;-67
2022/06/16 12:56:08;;;;;;;5.25;2.20;;;32.10;52.30;;;;;;4977049;28;20248;-67
2022/06/16 12:58:43;;;;;;;2.72;1.52;;;32.20;51.80;;;;;;5006989;28;20204;-67
2022/06/16 13:01:13;;;;;;;1.75;1.60;;;32.30;51.40;;;;;;5013620;28;20646;-67
2022/06/16 13:03:59;;;;;;;2.17;1.52;;;32.10;50.00;;;;;;5013546;28;20200;-67
2022/06/16 13:06:27;;;;;;;3.70;1.60;;;31.80;51.20;;;;;;5014908;28;20351;-66
2022/06/16 13:08:57;;;;;;;2.65;1.73;;;31.30;51.70;;;;;;5015239;28;20612;-66
2022/06/16 13:11:34;;;;;;;4.57;1.70;;;31.20;52.00;;;;;;5013715;28;20196;-67
2022/06/16 13:14:06;;;;;;;2.20;1.58;;;31.00;52.40;;;;;;5013414;28;20319;-67
2022/06/16 13:16:38;;;;;;;3.05;1.70;;;30.70;53.10;;;;;;5013690;28;20211;-67
2022/06/16 13:19:09;;;;;;;3.10;1.70;;;30.50;54.30;;;;;;5013480;28;20660;-67
2022/06/16 13:21:48;;;;;;;3.50;1.70;;;30.40;53.90;;;;;;5013533;28;20214;-68
2022/06/16 13:24:35;;;;;;;2.50;1.80;;;30.50;54.20;;;;;;5013197;28;20231;-67
2022/06/16 13:27:40;;;;;;;3.30;1.60;;;31.00;54.70;;;;;;5013404;28;20685;-67
2022/06/16 13:30:09;;;;;;;3.50;1.73;;;31.00;52.50;;;;;;5013442;28;20299;-67
2022/06/16 13:32:41;;;;;;;2.75;1.80;;;31.20;52.30;;;;;;5014287;28;20286;-67
2022/06/16 13:35:14;;;;;;;3.05;1.63;;;31.30;51.90;;;;;;5012858;28;20307;-67
2022/06/16 13:38:02;;;;;;;2.83;1.75;;;31.20;51.30;;;;;;5013228;28;20291;-67
2022/06/16 13:40:43;;;;;;;2.40;1.63;;;31.50;52.10;;;;;;5013372;28;20739;-67
2022/06/16 13:43:12;;;;;;;3.00;1.60;;;31.40;52.00;;;;;;5013242;28;20196;-67